createdAt,value
2022-11-25T00:01:33.112Z,100674.19
2022-11-25T00:04:01.202Z,100679.97
2022-11-25T00:06:34.252Z,100680.19
2022-11-25T00:09:08.196Z,100691.19
2022-11-25T00:11:37.428Z,100685.34
2022-11-25T00:14:05.474Z,100682.94
2022-11-25T00:16:32.515Z,100694.69
2022-11-25T00:18:59.707Z,100688.78
2022-11-25T00:21:31.844Z,100699.53
2022-11-25T00:24:02.321Z,100694.47
2022-11-25T00:26:32.735Z,100699.44
2022-11-25T00:29:02.581Z,100702.88
2022-11-25T00:31:33.712Z,100696.28
2022-11-25T00:34:00.745Z,100693.25
2022-11-25T00:36:36.404Z,100673.03
2022-11-25T00:39:08.198Z,100604.50
2022-11-25T00:41:54.004Z,100641.84
2022-11-25T00:44:38.044Z,100657.03
2022-11-25T00:47:15.312Z,100661.25
2022-11-25T00:49:46.042Z,100662.84
2022-11-25T00:52:37.039Z,100641.78
2022-11-25T00:55:05.308Z,100642.06
2022-11-25T00:57:32.230Z,100649.78
2022-11-25T00:59:59.148Z,100643.16
2022-11-25T01:02:26.265Z,100642.78
2022-11-25T01:04:53.284Z,100638.16
2022-11-25T01:07:20.252Z,100652.66
2022-11-25T01:09:49.250Z,100661.63
2022-11-25T01:12:16.242Z,100654.09
2022-11-25T01:14:43.321Z,100653.84
2022-11-25T01:17:10.245Z,100679.97
2022-11-25T01:19:40.512Z,100672.00
2022-11-25T01:22:09.511Z,100661.81
2022-11-25T01:24:36.692Z,100657.38
2022-11-25T01:27:03.862Z,100657.50
2022-11-25T01:29:30.827Z,100650.19
2022-11-25T01:31:57.914Z,100632.34
2022-11-25T01:34:27.226Z,100616.81
2022-11-25T01:36:54.146Z,100619.69
2022-11-25T01:39:28.670Z,100658.41
2022-11-25T01:41:58.979Z,100680.13
2022-11-25T01:44:31.698Z,100670.84
2022-11-25T01:47:16.935Z,100671.84
2022-11-25T01:50:11.140Z,100654.00
2022-11-25T01:52:46.544Z,100661.81
2022-11-25T01:55:20.518Z,100659.56
2022-11-25T01:57:54.094Z,100663.47
2022-11-25T02:00:21.905Z,100680.22
2022-11-25T02:02:52.214Z,100681.91
2022-11-25T02:05:32.375Z,100684.81
2022-11-25T02:08:01.088Z,100686.81
2022-11-25T02:10:32.291Z,100690.00
2022-11-25T02:13:00.417Z,100692.41
2022-11-25T02:15:29.484Z,100699.41
2022-11-25T02:17:56.715Z,100699.31
2022-11-25T02:20:25.031Z,100710.53
2022-11-25T02:23:07.110Z,100704.63
2022-11-25T02:25:40.442Z,100713.28
2022-11-25T02:28:13.769Z,100718.13
2022-11-25T02:30:41.162Z,100725.63
2022-11-25T02:33:08.494Z,100726.16
2022-11-25T02:35:41.641Z,100725.72
2022-11-25T02:38:15.452Z,100736.22
2022-11-25T02:41:02.984Z,100736.28
2022-11-25T02:43:29.953Z,100747.53
2022-11-25T02:46:10.693Z,100749.84
2022-11-25T02:49:07.424Z,100752.09
2022-11-25T02:51:31.701Z,100764.34
2022-11-25T02:53:59.551Z,100764.78
2022-11-25T02:56:31.633Z,100761.44
2022-11-25T02:58:59.094Z,100756.06
2022-11-25T03:01:26.433Z,100764.00
2022-11-25T03:03:53.430Z,100759.91
2022-11-25T03:06:20.440Z,100746.97
2022-11-25T03:08:47.497Z,100756.19
2022-11-25T03:11:14.736Z,100751.50
2022-11-25T03:13:42.036Z,100758.66
2022-11-25T03:16:09.207Z,100753.91
2022-11-25T03:18:36.656Z,100772.06
2022-11-25T03:21:03.882Z,100779.09
2022-11-25T03:23:30.930Z,100774.03
2022-11-25T03:25:58.037Z,100769.31
2022-11-25T03:28:24.966Z,100766.84
2022-11-25T03:30:52.138Z,100779.91
2022-11-25T03:33:19.162Z,100776.81
2022-11-25T03:35:48.248Z,100792.63
2022-11-25T03:38:15.211Z,100790.84
2022-11-25T03:40:42.586Z,100785.44
2022-11-25T03:43:09.500Z,100785.50
2022-11-25T03:45:36.439Z,100807.09
2022-11-25T03:48:03.581Z,100794.31
2022-11-25T03:50:30.614Z,100805.34
2022-11-25T03:52:57.570Z,100803.28
2022-11-25T03:55:24.502Z,100823.06
2022-11-25T03:57:51.419Z,100824.47
2022-11-25T04:00:18.543Z,100820.59
2022-11-25T04:02:45.768Z,100821.91
2022-11-25T04:05:12.794Z,100822.41
2022-11-25T04:07:39.769Z,100831.25
2022-11-25T04:10:07.905Z,100829.94
2022-11-25T04:12:46.735Z,100840.69
2022-11-25T04:15:16.094Z,100834.19
2022-11-25T04:17:43.093Z,100834.06
2022-11-25T04:20:12.469Z,100838.63
2022-11-25T04:22:39.963Z,100845.09
2022-11-25T04:25:09.485Z,100849.69
2022-11-25T04:27:38.393Z,100854.47
2022-11-25T04:30:06.912Z,100894.56
2022-11-25T04:32:33.950Z,100889.50
2022-11-25T04:35:00.938Z,100889.13
2022-11-25T04:37:28.006Z,100896.69
2022-11-25T04:39:54.980Z,100891.00
2022-11-25T04:42:34.792Z,100905.81
2022-11-25T04:45:24.741Z,100900.53
2022-11-25T04:47:52.664Z,100901.50
2022-11-25T04:50:23.020Z,100896.31
2022-11-25T04:52:50.277Z,100889.09
2022-11-25T04:55:17.303Z,100889.00
2022-11-25T04:57:44.296Z,100885.34
2022-11-25T05:00:15.002Z,100888.25
2022-11-25T05:02:42.202Z,100886.25
2022-11-25T05:05:09.345Z,100891.72
2022-11-25T05:07:36.418Z,100897.44
2022-11-25T05:10:03.736Z,100901.69
2022-11-25T05:12:31.049Z,100897.22
2022-11-25T05:14:58.331Z,100907.56
2022-11-25T05:17:30.812Z,100914.25
2022-11-25T05:19:57.909Z,100914.81
2022-11-25T05:22:30.592Z,100929.28
2022-11-25T05:24:58.412Z,100933.34
2022-11-25T05:27:26.947Z,100937.59
2022-11-25T05:29:56.281Z,100944.19
2022-11-25T05:32:23.603Z,100943.31
2022-11-25T05:34:50.517Z,100949.75
2022-11-25T05:37:21.257Z,100943.41
2022-11-25T05:39:51.514Z,100945.25
2022-11-25T05:42:18.748Z,100945.25
2022-11-25T05:44:45.671Z,100944.47
2022-11-25T05:47:12.564Z,100939.31
2022-11-25T05:49:39.560Z,100954.25
2022-11-25T05:52:06.459Z,100954.16
2022-11-25T05:54:33.524Z,100961.38
2022-11-25T05:57:00.573Z,100963.75
2022-11-25T05:59:27.474Z,100967.47
2022-11-25T06:01:54.708Z,100970.69
2022-11-25T06:04:21.641Z,100980.81
2022-11-25T06:06:48.718Z,100983.00
2022-11-25T06:09:15.625Z,100977.97
2022-11-25T06:11:42.528Z,100976.09
2022-11-25T06:14:09.817Z,100980.66
2022-11-25T06:16:36.774Z,100970.66
2022-11-25T06:19:07.480Z,100979.59
2022-11-25T06:21:34.407Z,100974.78
2022-11-25T06:24:01.558Z,100983.88
2022-11-25T06:26:28.686Z,100971.84
2022-11-25T06:28:56.828Z,100985.13
2022-11-25T06:31:27.584Z,100988.22
2022-11-25T06:33:55.013Z,100993.91
2022-11-25T06:36:23.009Z,100998.69
2022-11-25T06:38:53.472Z,101010.44
2022-11-25T06:41:22.342Z,101021.88
2022-11-25T06:43:49.591Z,101022.22
2022-11-25T06:46:24.351Z,101037.53
2022-11-25T06:48:53.838Z,101043.66
2022-11-25T06:51:20.930Z,101037.81
2022-11-25T06:53:48.413Z,101039.19
2022-11-25T06:56:27.484Z,101056.38
2022-11-25T06:58:55.834Z,101055.50
2022-11-25T07:01:28.956Z,101063.97
2022-11-25T07:04:04.237Z,101065.19
2022-11-25T07:06:33.394Z,101071.69
2022-11-25T07:09:01.326Z,101079.78
2022-11-25T07:11:38.393Z,101092.72
2022-11-25T07:14:10.751Z,101100.06
2022-11-25T07:16:41.246Z,101122.94
2022-11-25T07:19:13.587Z,101138.19
2022-11-25T07:21:41.530Z,101132.69
2022-11-25T07:24:09.778Z,101138.00
2022-11-25T07:26:38.409Z,101149.19
2022-11-25T07:29:23.495Z,101145.53
2022-11-25T07:31:56.156Z,101136.63
2022-11-25T07:34:26.118Z,101135.25
2022-11-25T07:36:53.263Z,101126.72
2022-11-25T07:39:22.715Z,101105.56
2022-11-25T07:41:52.080Z,101109.28
2022-11-25T07:44:20.026Z,101113.97
2022-11-25T07:46:49.298Z,101126.34
2022-11-25T07:49:22.434Z,101135.13
2022-11-25T07:51:59.779Z,101142.03
2022-11-25T07:54:27.168Z,101137.75
2022-11-25T07:56:54.118Z,101155.25
2022-11-25T07:59:22.724Z,101165.94
2022-11-25T08:01:54.969Z,101174.72
2022-11-25T08:04:22.959Z,101182.81
2022-11-25T08:06:52.582Z,101179.41
2022-11-25T08:09:23.893Z,101177.25
2022-11-25T08:11:52.055Z,101179.47
2022-11-25T08:14:19.674Z,101193.78
2022-11-25T08:16:46.687Z,101196.41
2022-11-25T08:19:16.682Z,101201.66
2022-11-25T08:21:43.684Z,101194.06
2022-11-25T08:24:19.945Z,101195.22
2022-11-25T08:26:47.863Z,101192.81
2022-11-25T08:29:16.772Z,101202.25
2022-11-25T08:31:44.131Z,101182.44
2022-11-25T08:34:20.072Z,101195.69
2022-11-25T08:36:48.723Z,101196.13
2022-11-25T08:39:44.071Z,101205.00
2022-11-25T08:42:05.886Z,101202.97
2022-11-25T08:44:32.827Z,101193.13
2022-11-25T08:46:59.948Z,101193.59
2022-11-25T08:49:29.265Z,101202.88
2022-11-25T08:51:56.285Z,101203.63
2022-11-25T08:54:23.214Z,101206.75
2022-11-25T08:56:50.122Z,101212.66
2022-11-25T08:59:17.016Z,101217.97
2022-11-25T09:01:44.260Z,101219.69
2022-11-25T09:04:11.465Z,101220.16
2022-11-25T09:06:39.240Z,101238.38
2022-11-25T09:09:06.818Z,101233.34
2022-11-25T09:11:33.872Z,101251.13
2022-11-25T09:14:00.925Z,101254.34
2022-11-25T09:16:28.475Z,101259.91
2022-11-25T09:18:56.295Z,101261.84
2022-11-25T09:21:25.051Z,101272.41
2022-11-25T09:23:54.047Z,101265.22
2022-11-25T09:26:31.100Z,101264.69
2022-11-25T09:28:58.535Z,101272.09
2022-11-25T09:31:25.563Z,101277.06
2022-11-25T09:33:52.773Z,101275.84
2022-11-25T09:36:21.034Z,101277.38
2022-11-25T09:38:48.276Z,101278.63
2022-11-25T09:42:12.915Z,101281.91
2022-11-25T09:45:44.323Z,101275.50
2022-11-25T09:48:49.948Z,101282.16
2022-11-25T09:52:01.463Z,101283.81
2022-11-25T09:55:12.878Z,101296.47
2022-11-25T09:58:27.876Z,101312.22
2022-11-25T10:00:54.815Z,101320.66
2022-11-25T10:03:41.598Z,101331.63
2022-11-25T10:06:31.371Z,101335.41
2022-11-25T10:09:04.898Z,101330.72
2022-11-25T10:12:01.233Z,101338.59
2022-11-25T10:14:45.364Z,101338.28
2022-11-25T10:17:50.165Z,101338.41
2022-11-25T10:20:37.530Z,101346.72
2022-11-25T10:23:32.880Z,101335.59
2022-11-25T10:26:13.010Z,101342.06
2022-11-25T10:28:52.047Z,101349.97
2022-11-25T10:31:29.116Z,101354.31
2022-11-25T10:33:59.465Z,101362.63
2022-11-25T10:36:38.806Z,101354.25
2022-11-25T10:39:15.060Z,101362.00
2022-11-25T10:42:10.081Z,101362.94
2022-11-25T10:44:40.882Z,101373.69
2022-11-25T10:47:53.802Z,101382.13
2022-11-25T10:50:33.864Z,101376.78
2022-11-25T10:53:12.219Z,101385.38
2022-11-25T10:55:39.437Z,101388.97
2022-11-25T10:58:31.083Z,101385.53
2022-11-25T11:01:17.002Z,101392.69
2022-11-25T11:03:55.109Z,101400.84
2022-11-25T11:06:51.423Z,101411.53
2022-11-25T11:09:40.980Z,101411.25
2022-11-25T11:12:20.654Z,101416.19
2022-11-25T11:14:48.285Z,101409.28
2022-11-25T11:17:34.817Z,101414.13
2022-11-25T11:20:25.664Z,101423.47
2022-11-25T11:23:08.364Z,101421.53
2022-11-25T11:25:41.655Z,101429.09
2022-11-25T11:28:36.988Z,101422.72
2022-11-25T11:31:23.077Z,101430.88
2022-11-25T11:34:01.356Z,101438.75
2022-11-25T11:36:55.960Z,101439.75
2022-11-25T11:39:35.308Z,101440.81
2022-11-25T11:42:18.856Z,101450.47
2022-11-25T11:45:25.644Z,101451.09
2022-11-25T11:48:13.438Z,101449.88
2022-11-25T11:50:55.973Z,101468.22
2022-11-25T11:53:38.482Z,101470.91
2022-11-25T11:56:38.850Z,101468.22
2022-11-25T11:59:46.985Z,101467.94
2022-11-25T12:02:37.712Z,101477.06
2022-11-25T12:05:10.623Z,101476.84
2022-11-25T12:08:13.577Z,101476.63
2022-11-25T12:11:01.996Z,101475.31
2022-11-25T12:13:46.695Z,101474.97
2022-11-25T12:16:17.487Z,101481.31
2022-11-25T12:19:22.452Z,101486.75
2022-11-25T12:22:21.660Z,101486.13
2022-11-25T12:25:08.812Z,101489.59
2022-11-25T12:27:44.494Z,101500.88
2022-11-25T12:30:21.211Z,101492.22
2022-11-25T12:33:15.037Z,101500.47
2022-11-25T12:36:06.363Z,101506.81
2022-11-25T12:38:41.955Z,101499.22
2022-11-25T12:41:42.488Z,101514.97
2022-11-25T12:44:19.662Z,101513.75
2022-11-25T12:46:52.307Z,101524.59
2022-11-25T12:49:26.733Z,101521.69
2022-11-25T12:52:35.632Z,101525.19
2022-11-25T12:55:21.405Z,101529.06
2022-11-25T12:58:28.053Z,101527.47
2022-11-25T13:01:26.089Z,101537.50
2022-11-25T13:04:19.867Z,101536.41
2022-11-25T13:07:27.510Z,101542.16
2022-11-25T13:10:37.054Z,101551.41
2022-11-25T13:13:44.214Z,101550.34
2022-11-25T13:16:12.041Z,101548.94
2022-11-25T13:18:43.239Z,101567.00
2022-11-25T13:21:13.283Z,101566.00
2022-11-25T13:23:49.491Z,101569.56
2022-11-25T13:26:28.949Z,101556.53
2022-11-25T13:28:57.135Z,101567.38
2022-11-25T13:31:35.543Z,101560.78
2022-11-25T13:34:32.978Z,101567.66
2022-11-25T13:37:02.776Z,101574.31
2022-11-25T13:39:33.844Z,101576.72
2022-11-25T13:42:22.415Z,101575.25
2022-11-25T13:44:53.785Z,101583.16
2022-11-25T13:47:38.833Z,101592.59
2022-11-25T13:50:22.231Z,101591.16
2022-11-25T13:53:06.542Z,101595.38
2022-11-25T13:55:39.118Z,101594.44
2022-11-25T13:58:26.859Z,101600.34
2022-11-25T14:01:29.448Z,101606.53
2022-11-25T14:04:00.296Z,101608.91
2022-11-25T14:06:36.523Z,101620.94
2022-11-25T14:09:22.337Z,101615.66
2022-11-25T14:12:13.919Z,101635.91
2022-11-25T14:15:33.282Z,101631.06
2022-11-25T14:22:20.263Z,101643.56
2022-11-25T14:24:50.916Z,101649.81
2022-11-25T14:27:28.618Z,101648.41
2022-11-25T14:30:10.833Z,101664.88
2022-11-25T14:32:58.418Z,101675.00
2022-11-25T14:35:45.736Z,101670.81
2022-11-25T14:38:44.788Z,101673.09
2022-11-25T14:41:19.962Z,101678.50
2022-11-25T14:44:15.292Z,101676.56
2022-11-25T14:46:59.160Z,101681.19
2022-11-25T14:50:05.269Z,101688.28
2022-11-25T14:52:36.947Z,101699.53
2022-11-25T14:55:06.396Z,101703.06
2022-11-25T14:57:37.847Z,101702.06
2022-11-25T15:00:10.188Z,101713.38
2022-11-25T15:02:42.441Z,101722.84
2022-11-25T15:05:16.407Z,101728.00
2022-11-25T15:07:56.610Z,101733.00
2022-11-25T15:10:39.830Z,101729.50
2022-11-25T15:13:38.936Z,101737.13
2022-11-25T15:16:17.853Z,101741.13
2022-11-25T15:18:57.058Z,101753.78
2022-11-25T15:21:31.894Z,101763.19
2022-11-25T15:23:59.521Z,101769.84
2022-11-25T15:26:30.672Z,101772.78
2022-11-25T15:29:13.919Z,101779.34
2022-11-25T15:31:42.103Z,101776.53
2022-11-25T15:34:13.566Z,101781.50
2022-11-25T15:36:40.830Z,101793.41
2022-11-25T15:39:19.645Z,101788.22
2022-11-25T15:41:57.768Z,101790.56
2022-11-25T15:44:29.171Z,101801.50
2022-11-25T15:47:22.640Z,101809.66
2022-11-25T15:50:01.307Z,101816.28
2022-11-25T15:52:33.330Z,101819.28
2022-11-25T15:55:20.691Z,101831.34
2022-11-25T15:57:51.712Z,101833.69
2022-11-25T16:00:23.219Z,101842.59
2022-11-25T16:02:53.964Z,101841.78
2022-11-25T16:05:35.424Z,101843.25
2022-11-25T16:08:18.609Z,101840.09
2022-11-25T16:10:45.450Z,101839.13
2022-11-25T16:13:25.632Z,101858.31
2022-11-25T16:16:08.029Z,101860.28
2022-11-25T16:19:02.621Z,101874.91
2022-11-25T16:21:35.634Z,101867.47
2022-11-25T16:24:05.472Z,101877.13
2022-11-25T16:26:40.673Z,101884.84
2022-11-25T16:29:27.436Z,101895.03
2022-11-25T16:31:54.421Z,101885.78
2022-11-25T16:34:24.151Z,101889.94
2022-11-25T16:36:51.086Z,101889.38
2022-11-25T16:39:17.996Z,101892.06
2022-11-25T16:41:56.015Z,101891.22
2022-11-25T16:44:26.225Z,101898.81
2022-11-25T16:46:54.100Z,101893.06
2022-11-25T16:49:22.684Z,101899.66
2022-11-25T16:51:50.939Z,101905.81
2022-11-25T16:54:22.963Z,101905.53
2022-11-25T16:56:54.900Z,101905.72
2022-11-25T16:59:35.896Z,101903.81
2022-11-25T17:02:03.430Z,101918.19
2022-11-25T17:04:30.697Z,101921.78
2022-11-25T17:07:30.999Z,101927.31
2022-11-25T17:09:45.426Z,101945.38
2022-11-25T17:12:26.418Z,101944.72
2022-11-25T17:14:53.524Z,101931.06
2022-11-25T17:17:25.286Z,101940.50
2022-11-25T17:19:53.406Z,101934.53
2022-11-25T17:22:24.559Z,101937.13
2022-11-25T17:24:51.835Z,101942.56
2022-11-25T17:27:30.370Z,101949.66
2022-11-25T17:30:00.925Z,101957.03
2022-11-25T17:32:28.145Z,101962.63
2022-11-25T17:34:55.143Z,101965.84
2022-11-25T17:37:24.691Z,101974.75
2022-11-25T17:39:53.548Z,101970.06
2022-11-25T17:42:33.101Z,101987.91
2022-11-25T17:45:00.912Z,101986.25
2022-11-25T17:47:27.968Z,101995.94
2022-11-25T17:49:55.240Z,102008.47
2022-11-25T17:52:22.335Z,102010.00
2022-11-25T17:54:49.299Z,102020.03
2022-11-25T17:57:21.753Z,102016.19
2022-11-25T17:59:49.158Z,102014.97
2022-11-25T18:02:19.460Z,102023.56
2022-11-25T18:04:46.583Z,102027.63
2022-11-25T18:07:13.724Z,102031.28
2022-11-25T18:09:41.010Z,102036.59
2022-11-25T18:12:15.138Z,102038.22
2022-11-25T18:14:43.011Z,102050.97
2022-11-25T18:17:16.761Z,102058.97
2022-11-25T18:19:44.118Z,102055.69
2022-11-25T18:22:17.923Z,102051.84
2022-11-25T18:24:45.286Z,102045.19
2022-11-25T18:27:27.436Z,102054.72
2022-11-25T18:29:55.826Z,102059.06
2022-11-25T18:32:24.003Z,102071.09
2022-11-25T18:34:51.934Z,102075.53
2022-11-25T18:37:18.998Z,102073.00
2022-11-25T18:39:46.620Z,102079.50
2022-11-25T18:42:40.698Z,102076.34
2022-11-25T18:45:19.903Z,102072.22
2022-11-25T18:47:47.490Z,102081.56
2022-11-25T18:50:20.609Z,102071.34
2022-11-25T18:52:48.519Z,102070.47
2022-11-25T18:55:18.784Z,102083.19
2022-11-25T18:57:49.478Z,102078.34
2022-11-25T19:00:33.162Z,102078.03
2022-11-25T19:03:00.629Z,102088.84
2022-11-25T19:05:33.484Z,102086.00
2022-11-25T19:08:00.931Z,102088.84
2022-11-25T19:10:32.058Z,102088.09
2022-11-25T19:13:03.963Z,102103.09
2022-11-25T19:15:31.170Z,102099.16
2022-11-25T19:18:01.212Z,102100.25
2022-11-25T19:20:30.219Z,102106.00
2022-11-25T19:23:00.896Z,102109.75
2022-11-25T19:25:28.517Z,102114.38
2022-11-25T19:27:59.482Z,102122.09
2022-11-25T19:30:31.202Z,102118.50
2022-11-25T19:33:00.014Z,102124.50
2022-11-25T19:35:34.086Z,102132.09
2022-11-25T19:38:01.199Z,102138.28
2022-11-25T19:40:34.710Z,102130.03
2022-11-25T19:43:04.757Z,102144.31
2022-11-25T19:45:32.392Z,102145.19
2022-11-25T19:48:06.022Z,102147.06
2022-11-25T19:50:35.559Z,102150.78
2022-11-25T19:53:02.509Z,102147.56
2022-11-25T19:55:29.981Z,102154.44
2022-11-25T19:57:57.653Z,102151.25
2022-11-25T20:00:25.584Z,102161.34
2022-11-25T20:02:54.885Z,102163.25
2022-11-25T20:05:33.407Z,102164.97
2022-11-25T20:08:01.179Z,102169.69
2022-11-25T20:10:31.903Z,102170.94
2022-11-25T20:12:59.881Z,102180.91
2022-11-25T20:15:26.976Z,102181.00
2022-11-25T20:17:59.004Z,102184.38
2022-11-25T20:20:33.295Z,102189.88
2022-11-25T20:23:05.780Z,102194.44
2022-11-25T20:25:43.221Z,102200.13
2022-11-25T20:28:30.052Z,102206.00
2022-11-25T20:30:59.265Z,102212.81
2022-11-25T20:33:27.481Z,102217.13
2022-11-25T20:36:05.071Z,102220.53
2022-11-25T20:38:34.304Z,102221.94
2022-11-25T20:41:01.947Z,102228.94
2022-11-25T20:43:36.843Z,102239.94
2022-11-25T20:46:04.231Z,102235.28
2022-11-25T20:48:31.804Z,102237.81
2022-11-25T20:51:03.473Z,102239.94
2022-11-25T20:53:32.419Z,102249.22
2022-11-25T20:56:00.224Z,102259.50
2022-11-25T20:58:30.575Z,102259.28
2022-11-25T21:00:58.764Z,102272.59
2022-11-25T21:03:26.750Z,102278.22
2022-11-25T21:05:55.456Z,102279.00
2022-11-25T21:08:27.500Z,102285.19
2022-11-25T21:10:57.701Z,102283.09
2022-11-25T21:13:30.332Z,102289.53
2022-11-25T21:15:57.721Z,102288.06
2022-11-25T21:18:25.456Z,102292.44
2022-11-25T21:20:54.645Z,102293.84
2022-11-25T21:23:33.535Z,102294.78
2022-11-25T21:26:10.424Z,102300.47
2022-11-25T21:28:42.180Z,102312.72
2022-11-25T21:31:21.385Z,102307.47
2022-11-25T21:33:49.676Z,102311.44
2022-11-25T21:36:24.284Z,102321.19
2022-11-25T21:39:00.394Z,102319.66
2022-11-25T21:41:27.392Z,102314.97
2022-11-25T21:43:54.354Z,102320.19
2022-11-25T21:46:26.603Z,102321.16
2022-11-25T21:48:53.623Z,102325.22
2022-11-25T21:51:24.194Z,102324.25
2022-11-25T21:53:52.336Z,102321.13
2022-11-25T21:56:33.952Z,102318.63
2022-11-25T21:59:04.182Z,102326.97
2022-11-25T22:01:31.212Z,102320.50
2022-11-25T22:03:58.618Z,102330.78
2022-11-25T22:06:28.566Z,102325.69
2022-11-25T22:08:59.736Z,102337.84
2022-11-25T22:11:37.429Z,102338.28
2022-11-25T22:14:28.818Z,102339.44
2022-11-25T22:16:57.069Z,102336.94
2022-11-25T22:19:26.689Z,102345.56
2022-11-25T22:21:54.842Z,102345.19
2022-11-25T22:24:22.514Z,102347.69
2022-11-25T22:26:56.156Z,102343.16
2022-11-25T22:29:30.912Z,102355.91
2022-11-25T22:31:57.908Z,102354.75
2022-11-25T22:34:25.709Z,102360.13
2022-11-25T22:36:52.800Z,102368.56
2022-11-25T22:39:25.960Z,102371.47
2022-11-25T22:41:56.589Z,102367.84
2022-11-25T22:44:42.922Z,102372.72
2022-11-25T22:47:28.974Z,102379.81
2022-11-25T22:49:56.363Z,102374.44
2022-11-25T22:52:28.419Z,102365.63
2022-11-25T22:54:58.546Z,102380.06
2022-11-25T22:57:25.465Z,102384.56
2022-11-25T22:59:52.402Z,102378.41
2022-11-25T23:02:33.130Z,102380.34
2022-11-25T23:05:00.309Z,102381.63
2022-11-25T23:07:27.559Z,102380.75
2022-11-25T23:09:56.150Z,102383.78
2022-11-25T23:12:23.038Z,102388.19
2022-11-25T23:14:50.181Z,102378.03
2022-11-25T23:17:22.639Z,102376.75
2022-11-25T23:19:51.630Z,102381.66
2022-11-25T23:22:19.657Z,102379.19
2022-11-25T23:24:48.637Z,102384.03
2022-11-25T23:27:16.579Z,102382.47
2022-11-25T23:29:44.931Z,102377.00
2022-11-25T23:32:19.283Z,102389.53
2022-11-25T23:34:49.381Z,102387.84
2022-11-25T23:37:16.393Z,102382.78
2022-11-25T23:39:45.240Z,102398.69
2022-11-25T23:42:18.006Z,102390.25
2022-11-25T23:44:45.514Z,102400.00
2022-11-25T23:47:18.900Z,102399.88
2022-11-25T23:49:49.769Z,102402.03
2022-11-25T23:52:28.035Z,102393.53
2022-11-25T23:54:55.705Z,102409.44
2022-11-25T23:57:29.583Z,102401.78
2022-11-25T23:59:56.643Z,102402.75
